This is the latest recevied weather packets stored in our database for station/object N7BTW-13. If no packets are shown the sender has not sent any weather packets the latest 10 day(s).
| Time | Temp. | Humidity | Pressure | Rain* | Wind** | Luminosity | Snow |
|---|---|---|---|---|---|---|---|
| 1787511011 | 25° C | 53% | - | 0 mm | - | - | - |
| 1787510407 | 23.89° C | 57% | - | 0 mm | - | - | - |
| 1787509808 | 23.33° C | 60% | - | 0 mm | - | - | - |
| 1787509209 | 22.22° C | 65% | - | 0 mm | - | - | - |
| 1787508606 | 22.22° C | 68% | - | 0 mm | - | - | - |
| 1787508006 | 22.78° C | 66% | - | 0 mm | - | - | - |
| 1787507409 | 22.22° C | 68% | - | 0 mm | - | - | - |
| 1787506810 | 21.11° C | 70% | - | 0 mm | - | - | - |
| 1787506209 | 22.22° C | 67% | - | 0 mm | - | - | - |
| 1787505610 | 21.67° C | 69% | - | 0 mm | - | - | - |
| 1787505009 | 22.22° C | 68% | - | 0 mm | - | - | - |
| 1787504410 | 20.56° C | 72% | - | 0 mm | - | - | - |
| 1787503809 | 20.56° C | 73% | - | 0 mm | - | - | - |
| 1787503216 | 20° C | 75% | - | 0 mm | - | - | - |
| 1787502609 | 19.44° C | 77% | - | 0 mm | - | - | - |
| 1787502008 | 19.44° C | 78% | - | 0 mm | - | - | - |
| 1787501406 | 19.44° C | 77% | - | 0 mm | - | - | - |
| 1787500808 | 18.89° C | 79% | - | 0 mm | - | - | - |
| 1787500208 | 19.44° C | 79% | - | 0 mm | - | - | - |
| 1787499611 | 18.33° C | 81% | - | 0 mm | - | - | - |
| 1787499007 | 18.33° C | 81% | - | 0 mm | - | - | - |
| 1787498408 | 18.33° C | 81% | - | 0 mm | - | - | - |
| 1787497807 | 18.33° C | 83% | - | 0 mm | - | - | - |
| 1787497208 | 17.78° C | 84% | - | 0 mm | - | - | - |
| 1787496609 | 17.78° C | 85% | - | 0 mm | - | - | - |
* Rain latest hour (hover to see other rain measurements)
** Current wind speed in m/s (hover to see current wind gust speed)